createdAt,value
2018-05-13T00:01:34.131Z,20.33
2018-05-13T00:04:00.552Z,21.60
2018-05-13T00:06:26.959Z,20.93
2018-05-13T00:08:53.352Z,19.80
2018-05-13T00:11:20.740Z,20.17
2018-05-13T00:13:47.878Z,23.80
2018-05-13T00:16:14.368Z,20.10
2018-05-13T00:18:40.709Z,21.87
2018-05-13T00:21:07.159Z,19.73
2018-05-13T00:23:33.608Z,18.70
2018-05-13T00:26:00.713Z,21.50
2018-05-13T00:28:27.064Z,18.60
2018-05-13T00:30:54.180Z,22.00
2018-05-13T00:33:20.505Z,20.00
2018-05-13T00:35:46.960Z,19.97
2018-05-13T00:38:13.498Z,24.83
2018-05-13T00:40:39.937Z,22.33
2018-05-13T00:43:06.513Z,20.87
2018-05-13T00:45:33.654Z,20.33
2018-05-13T00:48:00.775Z,19.87
2018-05-13T00:50:27.192Z,22.57
2018-05-13T00:52:53.636Z,19.33
2018-05-13T00:55:20.042Z,19.40
2018-05-13T00:57:46.337Z,20.83
2018-05-13T01:00:12.760Z,21.50
2018-05-13T01:02:39.277Z,17.13
2018-05-13T01:05:05.690Z,19.23
2018-05-13T01:07:32.078Z,20.03
2018-05-13T01:09:58.506Z,22.03
2018-05-13T01:12:24.823Z,22.87
2018-05-13T01:14:52.082Z,22.03
2018-05-13T01:17:18.410Z,18.50
2018-05-13T01:19:44.788Z,18.73
2018-05-13T01:22:11.123Z,17.83
2018-05-13T01:24:37.570Z,18.23
2018-05-13T01:27:04.096Z,21.90
2018-05-13T01:29:30.536Z,19.73
2018-05-13T01:31:56.982Z,21.47
2018-05-13T01:34:24.130Z,21.00
2018-05-13T01:36:51.260Z,20.07
2018-05-13T01:39:17.891Z,18.33
2018-05-13T01:41:44.277Z,23.30
2018-05-13T01:44:10.613Z,18.27
2018-05-13T01:46:36.966Z,19.30
2018-05-13T01:49:03.603Z,18.03
2018-05-13T01:51:30.637Z,19.07
2018-05-13T01:53:57.376Z,18.60
2018-05-13T01:56:23.851Z,19.63
2018-05-13T01:58:50.305Z,18.50
2018-05-13T02:01:17.580Z,16.17
2018-05-13T02:03:44.060Z,17.00
2018-05-13T02:06:11.962Z,14.80
2018-05-13T02:08:39.067Z,14.23
2018-05-13T02:11:05.528Z,15.30
2018-05-13T02:13:32.990Z,18.80
2018-05-13T02:16:00.052Z,17.70
2018-05-13T02:18:26.425Z,14.50
2018-05-13T02:20:54.100Z,17.50
2018-05-13T02:23:20.447Z,15.70
2018-05-13T02:25:47.670Z,15.13
2018-05-13T02:28:14.008Z,17.60
2018-05-13T02:30:41.868Z,17.83
2018-05-13T02:33:09.001Z,17.00
2018-05-13T02:35:35.373Z,17.10
2018-05-13T02:38:02.507Z,17.50
2018-05-13T02:40:28.923Z,15.13
2018-05-13T02:42:55.469Z,15.20
2018-05-13T02:45:21.916Z,15.93
2018-05-13T02:47:49.255Z,13.87
2018-05-13T02:50:15.627Z,15.10
2018-05-13T02:52:42.224Z,15.03
2018-05-13T02:55:08.719Z,14.87
2018-05-13T02:57:35.078Z,15.07
2018-05-13T03:00:02.741Z,16.00
2018-05-13T03:02:29.447Z,12.97
2018-05-13T03:04:55.824Z,13.20
2018-05-13T03:07:22.268Z,13.30
2018-05-13T03:09:48.613Z,13.07
2018-05-13T03:12:15.826Z,13.57
2018-05-13T03:14:42.145Z,13.23
2018-05-13T03:17:08.540Z,16.00
2018-05-13T03:19:35.013Z,12.10
2018-05-13T03:22:01.540Z,13.00
2018-05-13T03:24:27.976Z,12.93
2018-05-13T03:26:54.413Z,14.53
2018-05-13T03:29:20.762Z,13.17
2018-05-13T03:31:47.126Z,14.43
2018-05-13T03:34:13.522Z,13.20
2018-05-13T03:36:39.847Z,11.53
2018-05-13T03:39:06.368Z,12.90
2018-05-13T03:41:32.855Z,12.20
2018-05-13T03:43:59.122Z,11.43
2018-05-13T03:46:25.588Z,11.97
2018-05-13T03:48:52.093Z,13.60
2018-05-13T03:51:18.473Z,13.60
2018-05-13T03:53:45.016Z,15.00
2018-05-13T03:56:11.520Z,14.03
2018-05-13T03:58:38.671Z,12.23
2018-05-13T04:01:05.831Z,13.43
2018-05-13T04:03:32.911Z,11.00
2018-05-13T04:05:59.495Z,11.50
2018-05-13T04:08:46.815Z,11.73
2018-05-13T04:11:26.545Z,10.13
2018-05-13T04:14:06.657Z,25.33
2018-05-13T04:16:33.116Z,14.67
2018-05-13T04:18:59.552Z,10.90
2018-05-13T04:21:25.997Z,10.03
2018-05-13T04:23:52.325Z,11.63
2018-05-13T04:26:19.184Z,16.60
2018-05-13T04:28:47.066Z,11.97
2018-05-13T04:31:14.228Z,11.80
2018-05-13T04:33:41.329Z,10.97
2018-05-13T04:36:07.686Z,10.93
2018-05-13T04:38:34.761Z,12.77
2018-05-13T04:41:01.305Z,13.27
2018-05-13T04:43:27.671Z,17.17
2018-05-13T04:45:54.154Z,11.30
2018-05-13T04:48:20.512Z,11.67
2018-05-13T04:50:46.915Z,12.33
2018-05-13T04:53:13.796Z,13.93
2018-05-13T04:55:40.186Z,11.70
2018-05-13T04:58:06.538Z,11.33
2018-05-13T05:00:32.902Z,15.27
2018-05-13T05:03:00.919Z,11.90
2018-05-13T05:05:27.430Z,19.50
2018-05-13T05:07:54.478Z,22.03
2018-05-13T05:10:20.933Z,12.67
2018-05-13T05:12:47.603Z,12.10
2018-05-13T05:15:13.932Z,12.10
2018-05-13T05:17:40.292Z,11.50
2018-05-13T05:20:06.985Z,12.27
2018-05-13T05:22:33.618Z,16.13
2018-05-13T05:25:00.000Z,15.60
2018-05-13T05:27:26.322Z,16.30
2018-05-13T05:29:52.857Z,15.73
2018-05-13T05:32:19.257Z,13.40
2018-05-13T05:34:45.601Z,15.67
2018-05-13T05:37:11.976Z,13.97
2018-05-13T05:39:38.589Z,15.10
2018-05-13T05:42:05.035Z,16.90
2018-05-13T05:44:32.523Z,13.27
2018-05-13T05:46:58.862Z,14.47
2018-05-13T05:49:25.652Z,15.50
2018-05-13T05:51:52.948Z,14.20
2018-05-13T05:54:19.440Z,14.13
2018-05-13T05:56:45.746Z,19.67
2018-05-13T05:59:12.535Z,17.83
2018-05-13T06:01:39.129Z,18.27
2018-05-13T06:04:05.543Z,18.90
2018-05-13T06:06:32.044Z,19.67
2018-05-13T06:08:58.393Z,18.40
2018-05-13T06:11:25.073Z,20.70
2018-05-13T06:13:51.889Z,21.97
2018-05-13T06:16:18.342Z,17.73
2018-05-13T06:18:44.829Z,24.83
2018-05-13T06:21:11.337Z,21.23
2018-05-13T06:23:38.417Z,17.10
2018-05-13T06:26:05.313Z,19.23
2018-05-13T06:28:32.547Z,27.97
2018-05-13T06:30:58.886Z,17.30
2018-05-13T06:33:26.086Z,16.13
2018-05-13T06:35:52.858Z,18.13
2018-05-13T06:38:19.121Z,16.97
2018-05-13T06:40:46.419Z,17.13
2018-05-13T06:43:12.865Z,18.27
2018-05-13T06:45:39.384Z,15.93
2018-05-13T06:48:05.828Z,16.33
2018-05-13T06:50:32.272Z,17.10
2018-05-13T06:52:58.808Z,17.27
2018-05-13T06:55:25.168Z,17.50
2018-05-13T06:57:52.257Z,19.67
2018-05-13T07:00:18.841Z,18.53
2018-05-13T07:02:45.219Z,21.30
2018-05-13T07:05:11.601Z,17.47
2018-05-13T07:07:38.146Z,17.43
2018-05-13T07:10:05.229Z,18.67
2018-05-13T07:12:31.855Z,17.17
2018-05-13T07:14:58.384Z,19.67
2018-05-13T07:17:24.860Z,19.87
2018-05-13T07:19:51.187Z,17.80
2018-05-13T07:22:17.521Z,17.87
2018-05-13T07:24:44.157Z,22.00
2018-05-13T07:27:10.488Z,23.40
2018-05-13T07:29:37.106Z,22.50
2018-05-13T07:32:03.659Z,17.40
2018-05-13T07:34:30.019Z,17.70
2018-05-13T07:36:56.458Z,18.20
2018-05-13T07:39:23.686Z,17.47
2018-05-13T07:41:50.605Z,20.40
2018-05-13T07:44:17.218Z,18.97
2018-05-13T07:46:43.708Z,18.30
2018-05-13T07:49:10.220Z,17.30
2018-05-13T07:51:36.796Z,22.03
2018-05-13T07:54:04.108Z,18.60
2018-05-13T07:56:30.554Z,19.13
2018-05-13T07:58:56.932Z,17.70
2018-05-13T08:01:23.350Z,17.50
2018-05-13T08:03:49.651Z,16.17
2018-05-13T08:06:16.294Z,15.30
2018-05-13T08:08:42.684Z,19.83
2018-05-13T08:11:09.171Z,18.17
2018-05-13T08:13:36.688Z,19.70
2018-05-13T08:16:03.310Z,20.67
2018-05-13T08:18:29.806Z,19.40
2018-05-13T08:20:56.513Z,21.13
2018-05-13T08:23:22.828Z,17.63
2018-05-13T08:25:49.278Z,17.93
2018-05-13T08:28:15.759Z,19.77
2018-05-13T08:30:42.095Z,19.30
2018-05-13T08:33:08.575Z,20.73
2018-05-13T08:35:34.976Z,22.70
2018-05-13T08:38:01.310Z,19.73
2018-05-13T08:40:27.872Z,18.80
2018-05-13T08:42:55.145Z,20.03
2018-05-13T08:45:22.417Z,18.53
2018-05-13T08:47:48.944Z,21.33
2018-05-13T08:50:16.024Z,21.30
2018-05-13T08:52:42.403Z,16.37
2018-05-13T08:55:08.805Z,20.60
2018-05-13T08:57:35.169Z,17.07
2018-05-13T09:00:02.323Z,22.33
2018-05-13T09:02:29.765Z,16.73
2018-05-13T09:04:56.201Z,24.87
2018-05-13T09:07:22.708Z,19.33
2018-05-13T09:09:49.121Z,15.90
2018-05-13T09:12:15.630Z,16.70
2018-05-13T09:14:42.033Z,18.50
2018-05-13T09:17:09.209Z,17.20
2018-05-13T09:19:35.694Z,16.17
2018-05-13T09:22:02.011Z,17.17
2018-05-13T09:24:28.401Z,13.63
2018-05-13T09:26:54.804Z,17.00
2018-05-13T09:29:21.316Z,22.40
2018-05-13T09:31:47.696Z,13.93
2018-05-13T09:34:14.932Z,12.63
2018-05-13T09:36:42.062Z,14.10
2018-05-13T09:39:08.548Z,12.00
2018-05-13T09:41:35.494Z,14.30
2018-05-13T09:44:01.902Z,13.23
2018-05-13T09:46:29.367Z,13.57
2018-05-13T09:48:55.953Z,13.70
2018-05-13T09:51:22.591Z,10.60
2018-05-13T09:53:48.913Z,12.00
2018-05-13T09:56:15.331Z,11.97
2018-05-13T09:58:41.854Z,10.17
2018-05-13T10:01:08.321Z,11.07
2018-05-13T10:03:34.701Z,12.00
2018-05-13T10:06:01.792Z,11.13
2018-05-13T10:08:28.298Z,13.23
2018-05-13T10:10:54.698Z,10.13
2018-05-13T10:13:21.756Z,14.20
2018-05-13T10:15:48.804Z,13.00
2018-05-13T10:18:16.011Z,9.80
2018-05-13T10:20:42.555Z,13.43
2018-05-13T10:23:09.045Z,10.47
2018-05-13T10:25:35.409Z,16.33
2018-05-13T10:28:01.832Z,11.03
2018-05-13T10:30:28.409Z,24.37
2018-05-13T10:32:55.734Z,14.00
2018-05-13T10:35:22.151Z,10.70
2018-05-13T10:37:48.655Z,12.87
2018-05-13T10:40:15.028Z,12.43
2018-05-13T10:42:41.465Z,9.67
2018-05-13T10:45:07.855Z,10.13
2018-05-13T10:47:34.180Z,12.60
2018-05-13T10:50:00.571Z,13.97
2018-05-13T10:52:27.243Z,10.30
2018-05-13T10:54:53.643Z,11.83
2018-05-13T10:57:20.051Z,12.47
2018-05-13T10:59:46.537Z,9.53
2018-05-13T11:02:12.893Z,10.67
2018-05-13T11:04:39.457Z,11.63
2018-05-13T11:07:05.822Z,9.37
2018-05-13T11:09:33.273Z,11.00
2018-05-13T11:12:00.511Z,10.17
2018-05-13T11:14:27.106Z,8.50
2018-05-13T11:16:53.457Z,8.50
2018-05-13T11:19:19.843Z,8.10
2018-05-13T11:21:46.257Z,8.87
2018-05-13T11:24:13.535Z,10.10
2018-05-13T11:26:40.083Z,8.00
2018-05-13T11:29:06.425Z,8.00
2018-05-13T11:31:32.977Z,7.80
2018-05-13T11:33:59.445Z,9.13
2018-05-13T11:36:26.662Z,7.57
2018-05-13T11:38:53.022Z,11.50
2018-05-13T11:41:20.341Z,6.97
2018-05-13T11:43:46.815Z,6.90
2018-05-13T11:46:13.976Z,10.20
2018-05-13T11:48:40.663Z,7.10
2018-05-13T11:51:07.942Z,8.77
2018-05-13T11:53:34.331Z,9.60
2018-05-13T11:56:00.852Z,6.87
2018-05-13T11:58:27.527Z,6.87
2018-05-13T12:00:54.108Z,7.83
2018-05-13T12:03:20.514Z,8.73
2018-05-13T12:05:46.924Z,7.73
2018-05-13T12:08:13.698Z,7.73
2018-05-13T12:10:40.864Z,8.67
2018-05-13T12:13:07.750Z,6.93
2018-05-13T12:15:35.031Z,7.47
2018-05-13T12:18:02.344Z,8.13
2018-05-13T12:20:29.200Z,7.30
2018-05-13T12:22:55.595Z,8.20
2018-05-13T12:25:22.073Z,8.07
2018-05-13T12:27:48.471Z,7.47
2018-05-13T12:30:15.045Z,6.60
2018-05-13T12:32:41.551Z,7.27
2018-05-13T12:35:08.341Z,7.57
2018-05-13T12:37:35.544Z,6.93
2018-05-13T12:40:02.073Z,7.53
2018-05-13T12:42:28.478Z,9.50
2018-05-13T12:44:55.385Z,9.00
2018-05-13T12:47:21.740Z,10.53
2018-05-13T12:49:49.171Z,10.20
2018-05-13T12:52:15.553Z,8.83
2018-05-13T12:54:41.915Z,7.67
2018-05-13T12:57:08.450Z,8.80
2018-05-13T12:59:34.879Z,11.10
2018-05-13T13:02:01.450Z,7.57
2018-05-13T13:04:28.640Z,7.03
2018-05-13T13:06:55.121Z,7.53
2018-05-13T13:09:21.614Z,6.53
2018-05-13T13:11:48.770Z,6.90
2018-05-13T13:14:15.765Z,7.13
2018-05-13T13:16:43.004Z,8.07
2018-05-13T13:19:09.487Z,6.40
2018-05-13T13:21:36.901Z,5.80
2018-05-13T13:24:04.019Z,9.37
2018-05-13T13:26:30.437Z,7.27
2018-05-13T13:28:56.796Z,5.63
2018-05-13T13:31:23.364Z,7.40
2018-05-13T13:33:49.884Z,8.23
2018-05-13T13:36:16.262Z,5.27
2018-05-13T13:38:42.762Z,5.30
2018-05-13T13:41:09.957Z,6.83
2018-05-13T13:43:36.475Z,8.03
2018-05-13T13:46:02.856Z,5.57
2018-05-13T13:48:29.679Z,6.23
2018-05-13T13:50:56.081Z,4.37
2018-05-13T13:53:22.528Z,8.20
2018-05-13T13:55:49.078Z,4.37
2018-05-13T13:58:15.698Z,13.70
2018-05-13T14:00:43.071Z,4.43
2018-05-13T14:03:10.335Z,4.43
2018-05-13T14:05:37.797Z,4.27
2018-05-13T14:08:04.418Z,4.43
2018-05-13T14:10:30.812Z,6.93
2018-05-13T14:12:57.383Z,4.50
2018-05-13T14:15:23.785Z,3.60
2018-05-13T14:17:50.290Z,3.33
2018-05-13T14:20:17.762Z,6.70
2018-05-13T14:22:44.237Z,3.70
2018-05-13T14:25:10.671Z,3.30
2018-05-13T14:27:37.149Z,12.10
2018-05-13T14:30:04.465Z,3.87
2018-05-13T14:32:30.932Z,5.10
2018-05-13T14:34:58.042Z,4.50
2018-05-13T14:37:24.404Z,3.83
2018-05-13T14:39:51.913Z,8.13
2018-05-13T14:42:18.435Z,4.43
2018-05-13T14:44:44.977Z,9.27
2018-05-13T14:47:11.378Z,3.00
2018-05-13T14:49:37.730Z,4.50
2018-05-13T14:52:04.113Z,3.60
2018-05-13T14:54:30.459Z,6.93
2018-05-13T14:56:57.606Z,3.57
2018-05-13T14:59:24.715Z,4.27
2018-05-13T15:01:51.194Z,3.33
2018-05-13T15:04:18.222Z,5.60
2018-05-13T15:06:44.598Z,5.43
2018-05-13T15:09:11.012Z,8.43
2018-05-13T15:11:37.377Z,3.70
2018-05-13T15:14:04.038Z,4.47
2018-05-13T15:16:30.693Z,7.53
2018-05-13T15:18:57.331Z,4.53
2018-05-13T15:21:23.726Z,13.80
2018-05-13T15:23:50.318Z,13.63
2018-05-13T15:26:17.633Z,6.10
2018-05-13T15:28:44.409Z,7.90
2018-05-13T15:31:10.944Z,6.20
2018-05-13T15:33:38.195Z,4.87
2018-05-13T15:36:05.356Z,5.07
2018-05-13T15:38:31.679Z,5.77
2018-05-13T15:40:58.885Z,4.40
2018-05-13T15:43:25.824Z,13.17
2018-05-13T15:45:52.976Z,4.60
2018-05-13T15:48:19.523Z,5.03
2018-05-13T15:50:46.112Z,5.90
2018-05-13T15:53:12.599Z,9.63
2018-05-13T15:55:38.902Z,6.93
2018-05-13T15:58:05.386Z,4.47
2018-05-13T16:00:32.528Z,5.83
2018-05-13T16:02:59.691Z,5.77
2018-05-13T16:05:27.342Z,7.77
2018-05-13T16:07:54.565Z,6.07
2018-05-13T16:10:20.888Z,8.70
2018-05-13T16:12:47.241Z,4.73
2018-05-13T16:15:13.807Z,4.93
2018-05-13T16:17:40.324Z,4.63
2018-05-13T16:20:07.578Z,7.53
2018-05-13T16:22:35.244Z,4.17
2018-05-13T16:25:02.553Z,4.83
2018-05-13T16:27:29.084Z,5.33
2018-05-13T16:29:55.524Z,5.80
2018-05-13T16:32:22.055Z,9.83
2018-05-13T16:34:48.544Z,4.77
2018-05-13T16:37:15.027Z,9.50
2018-05-13T16:39:41.797Z,9.60
2018-05-13T16:42:08.964Z,9.03
2018-05-13T16:44:35.298Z,6.63
2018-05-13T16:47:01.651Z,5.17
2018-05-13T16:49:28.020Z,9.63
2018-05-13T16:51:54.638Z,16.43
2018-05-13T16:54:21.474Z,6.10
2018-05-13T16:56:48.132Z,4.17
2018-05-13T16:59:14.727Z,4.57
2018-05-13T17:01:41.406Z,8.30
2018-05-13T17:04:08.688Z,5.37
2018-05-13T17:06:36.514Z,6.27
2018-05-13T17:09:02.976Z,6.90
2018-05-13T17:11:31.184Z,7.77
2018-05-13T17:13:58.055Z,11.33
2018-05-13T17:16:24.453Z,7.77
2018-05-13T17:18:50.936Z,6.30
2018-05-13T17:21:17.596Z,5.87
2018-05-13T17:23:43.990Z,9.27
2018-05-13T17:26:10.344Z,5.53
2018-05-13T17:28:38.083Z,4.63
2018-05-13T17:31:04.643Z,4.67
2018-05-13T17:33:31.740Z,4.17
2018-05-13T17:35:58.373Z,8.73
2018-05-13T17:38:25.280Z,4.03
2018-05-13T17:40:51.765Z,3.73
2018-05-13T17:43:18.242Z,7.43
2018-05-13T17:45:44.715Z,4.23
2018-05-13T17:48:11.408Z,4.00
2018-05-13T17:50:37.833Z,6.60
2018-05-13T17:53:04.559Z,6.17
2018-05-13T17:55:31.022Z,7.20
2018-05-13T17:57:57.472Z,5.73
2018-05-13T18:00:24.739Z,10.40
2018-05-13T18:02:51.326Z,3.50
2018-05-13T18:05:17.777Z,4.70
2018-05-13T18:07:44.459Z,11.93
2018-05-13T18:10:10.818Z,3.70
2018-05-13T18:12:37.248Z,5.73
2018-05-13T18:15:03.663Z,6.50
2018-05-13T18:17:30.223Z,4.17
2018-05-13T18:19:56.605Z,4.93
2018-05-13T18:22:23.171Z,5.37
2018-05-13T18:24:50.964Z,3.90
2018-05-13T18:27:18.612Z,6.43
2018-05-13T18:29:44.966Z,6.23
2018-05-13T18:32:12.515Z,11.50
2018-05-13T18:34:38.895Z,4.37
2018-05-13T18:37:06.013Z,6.07
2018-05-13T18:39:33.643Z,3.63
2018-05-13T18:42:00.124Z,3.50
2018-05-13T18:44:27.262Z,4.17
2018-05-13T18:46:53.965Z,5.30
2018-05-13T18:49:20.500Z,6.37
2018-05-13T18:51:46.936Z,6.10
2018-05-13T18:54:13.381Z,6.20
2018-05-13T18:56:39.890Z,6.43
2018-05-13T18:59:06.316Z,6.73
2018-05-13T19:01:32.636Z,3.93
2018-05-13T19:04:00.027Z,10.93
2018-05-13T19:06:27.516Z,7.40
2018-05-13T19:08:53.923Z,9.30
2018-05-13T19:11:20.695Z,10.30
2018-05-13T19:13:47.187Z,4.80
2018-05-13T19:16:13.629Z,6.70
2018-05-13T19:18:41.680Z,3.43
2018-05-13T19:21:08.424Z,3.93
2018-05-13T19:23:35.058Z,3.43
2018-05-13T19:26:01.432Z,4.37
2018-05-13T19:28:28.635Z,3.83
2018-05-13T19:30:55.031Z,5.97
2018-05-13T19:33:21.516Z,4.90
2018-05-13T19:35:48.300Z,4.80
2018-05-13T19:38:14.739Z,5.13
2018-05-13T19:40:41.270Z,9.30
2018-05-13T19:43:08.494Z,4.60
2018-05-13T19:45:36.619Z,8.47
2018-05-13T19:48:03.006Z,4.40
2018-05-13T19:50:30.193Z,9.23
2018-05-13T19:52:57.464Z,4.53
2018-05-13T19:55:24.229Z,4.20
2018-05-13T19:57:51.626Z,8.13
2018-05-13T20:00:19.805Z,4.70
2018-05-13T20:02:46.398Z,9.07
2018-05-13T20:05:13.546Z,12.90
2018-05-13T20:07:40.646Z,6.07
2018-05-13T20:10:07.901Z,5.20
2018-05-13T20:12:35.199Z,7.90
2018-05-13T20:15:01.671Z,5.17
2018-05-13T20:17:28.260Z,9.67
2018-05-13T20:19:54.621Z,13.43
2018-05-13T20:22:21.035Z,5.30
2018-05-13T20:24:47.445Z,5.30
2018-05-13T20:27:13.850Z,5.20
2018-05-13T20:29:40.186Z,8.40
2018-05-13T20:32:06.705Z,5.37
2018-05-13T20:34:33.165Z,5.57
2018-05-13T20:37:00.534Z,7.17
2018-05-13T20:39:26.945Z,5.37
2018-05-13T20:41:53.397Z,9.03
2018-05-13T20:44:20.175Z,4.63
2018-05-13T20:46:46.674Z,4.90
2018-05-13T20:49:14.794Z,5.30
2018-05-13T20:51:41.406Z,6.10
2018-05-13T20:54:08.525Z,6.43
2018-05-13T20:56:36.225Z,6.70
2018-05-13T20:59:03.453Z,4.93
2018-05-13T21:01:30.193Z,6.70
2018-05-13T21:03:56.745Z,6.93
2018-05-13T21:06:23.933Z,6.43
2018-05-13T21:08:50.656Z,7.87
2018-05-13T21:11:17.064Z,6.70
2018-05-13T21:13:44.303Z,5.80
2018-05-13T21:16:10.865Z,10.17
2018-05-13T21:18:37.218Z,6.80
2018-05-13T21:21:03.679Z,8.00
2018-05-13T21:23:30.251Z,5.13
2018-05-13T21:25:57.566Z,5.63
2018-05-13T21:28:24.197Z,5.60
2018-05-13T21:30:50.626Z,4.70
2018-05-13T21:33:17.684Z,9.07
2018-05-13T21:35:44.237Z,5.90
2018-05-13T21:38:10.655Z,4.40
2018-05-13T21:40:37.132Z,10.03
2018-05-13T21:43:03.482Z,5.37
2018-05-13T21:45:29.826Z,7.00
2018-05-13T21:47:56.183Z,9.43
2018-05-13T21:50:22.705Z,5.70
2018-05-13T21:52:49.255Z,9.50
2018-05-13T21:55:15.687Z,7.63
2018-05-13T21:57:42.784Z,5.80
2018-05-13T22:00:09.209Z,8.53
2018-05-13T22:02:35.608Z,5.40
2018-05-13T22:05:02.753Z,5.57
2018-05-13T22:07:30.075Z,4.60
2018-05-13T22:09:56.617Z,5.30
2018-05-13T22:12:23.049Z,6.00
2018-05-13T22:14:49.534Z,12.03
2018-05-13T22:17:16.110Z,14.70
2018-05-13T22:19:42.607Z,5.20
2018-05-13T22:22:09.025Z,4.70
2018-05-13T22:24:35.429Z,7.83
2018-05-13T22:27:01.766Z,8.90
2018-05-13T22:29:28.087Z,4.70
2018-05-13T22:31:54.615Z,7.43
2018-05-13T22:34:20.971Z,5.27
2018-05-13T22:36:48.059Z,5.43
2018-05-13T22:39:14.511Z,7.57
2018-05-13T22:41:40.952Z,5.00
2018-05-13T22:44:07.353Z,4.93
2018-05-13T22:46:34.572Z,4.93
2018-05-13T22:49:01.625Z,10.10
2018-05-13T22:51:28.787Z,5.30
2018-05-13T22:53:55.142Z,6.67
2018-05-13T22:56:21.471Z,4.53
2018-05-13T22:58:47.996Z,4.93
2018-05-13T23:01:14.364Z,5.30
2018-05-13T23:03:40.720Z,5.83
2018-05-13T23:06:08.013Z,5.50
2018-05-13T23:08:34.417Z,4.43
2018-05-13T23:11:00.818Z,4.43
2018-05-13T23:13:27.268Z,9.93
2018-05-13T23:15:54.358Z,5.27
2018-05-13T23:18:20.759Z,6.87
2018-05-13T23:20:47.980Z,8.17
2018-05-13T23:23:14.274Z,4.90
2018-05-13T23:25:40.653Z,4.87
2018-05-13T23:28:07.769Z,4.83
2018-05-13T23:30:34.202Z,4.73
2018-05-13T23:33:00.623Z,4.70
2018-05-13T23:35:27.000Z,8.40
2018-05-13T23:37:54.240Z,6.47
2018-05-13T23:40:21.324Z,9.33
2018-05-13T23:42:48.045Z,5.10
2018-05-13T23:45:14.528Z,5.00
2018-05-13T23:47:41.031Z,4.37
2018-05-13T23:50:07.446Z,5.20
2018-05-13T23:52:34.663Z,6.00
2018-05-13T23:55:01.080Z,4.57
2018-05-13T23:57:27.422Z,4.80
2018-05-13T23:59:55.384Z,4.60
